sensor_id;sensor_type;location;lat;lon;timestamp;temperature;humidity
70151;DHT22;57517;43.562;19.540;2022-08-01T00:01:24;461.50;2073.60
70151;DHT22;57517;43.562;19.540;2022-08-01T00:03:50;461.60;2048.00
70151;DHT22;57517;43.562;19.540;2022-08-01T00:06:16;461.50;2048.00
70151;DHT22;57517;43.562;19.540;2022-08-01T00:08:42;461.30;2073.60
70151;DHT22;57517;43.562;19.540;2022-08-01T00:11:08;461.00;2099.20
70151;DHT22;57517;43.562;19.540;2022-08-01T00:13:35;461.20;2073.60
70151;DHT22;57517;43.562;19.540;2022-08-01T00:16:00;461.50;2048.00
70151;DHT22;57517;43.562;19.540;2022-08-01T00:18:26;461.50;2048.00
70151;DHT22;57517;43.562;19.540;2022-08-01T00:20:52;461.60;2048.00
70151;DHT22;57517;43.562;19.540;2022-08-01T00:23:18;461.70;2022.40
70151;DHT22;57517;43.562;19.540;2022-08-01T00:25:44;461.60;2022.40
70151;DHT22;57517;43.562;19.540;2022-08-01T00:28:10;461.60;2048.00
70151;DHT22;57517;43.562;19.540;2022-08-01T00:30:36;461.50;2048.00
70151;DHT22;57517;43.562;19.540;2022-08-01T00:33:02;461.50;2073.60
70151;DHT22;57517;43.562;19.540;2022-08-01T00:35:28;461.20;2073.60
70151;DHT22;57517;43.562;19.540;2022-08-01T00:37:54;461.10;2073.60
70151;DHT22;57517;43.562;19.540;2022-08-01T00:40:20;461.20;2073.60
70151;DHT22;57517;43.562;19.540;2022-08-01T00:42:46;460.90;2099.20
70151;DHT22;57517;43.562;19.540;2022-08-01T00:45:12;436.10;2073.60
70151;DHT22;57517;43.562;19.540;2022-08-01T00:47:38;436.00;2099.20
70151;DHT22;57517;43.562;19.540;2022-08-01T00:50:04;460.90;2099.20
70151;DHT22;57517;43.562;19.540;2022-08-01T00:52:31;460.90;2073.60
70151;DHT22;57517;43.562;19.540;2022-08-01T00:54:57;461.00;2073.60
70151;DHT22;57517;43.562;19.540;2022-08-01T00:57:23;460.90;2099.20
70151;DHT22;57517;43.562;19.540;2022-08-01T00:59:49;460.90;2099.20
70151;DHT22;57517;43.562;19.540;2022-08-01T01:02:15;460.90;2073.60
70151;DHT22;57517;43.562;19.540;2022-08-01T01:04:42;460.80;2099.20
70151;DHT22;57517;43.562;19.540;2022-08-01T01:07:26;436.00;2073.60
70151;DHT22;57517;43.562;19.540;2022-08-01T01:10:12;436.00;2099.20
70151;DHT22;57517;43.562;19.540;2022-08-01T01:12:50;436.00;2099.20
70151;DHT22;57517;43.562;19.540;2022-08-01T01:15:45;436.00;2099.20
70151;DHT22;57517;43.562;19.540;2022-08-01T01:18:25;435.70;2099.20
70151;DHT22;57517;43.562;19.540;2022-08-01T01:27:02;460.90;2073.60
70151;DHT22;57517;43.562;19.540;2022-08-01T01:29:32;461.00;2073.60
70151;DHT22;57517;43.562;19.540;2022-08-01T01:32:14;461.00;2073.60
70151;DHT22;57517;43.562;19.540;2022-08-01T01:34:44;461.00;2073.60
70151;DHT22;57517;43.562;19.540;2022-08-01T01:37:15;461.00;2073.60
70151;DHT22;57517;43.562;19.540;2022-08-01T01:39:43;436.10;2073.60
70151;DHT22;57517;43.562;19.540;2022-08-01T01:42:10;435.90;2099.20
70151;DHT22;57517;43.562;19.540;2022-08-01T01:44:37;435.80;2099.20
70151;DHT22;57517;43.562;19.540;2022-08-01T01:47:04;435.90;2099.20
70151;DHT22;57517;43.562;19.540;2022-08-01T01:49:30;435.80;2124.80
70151;DHT22;57517;43.562;19.540;2022-08-01T01:51:59;435.90;2099.20
70151;DHT22;57517;43.562;19.540;2022-08-01T01:54:30;435.70;2099.20
70151;DHT22;57517;43.562;19.540;2022-08-01T01:56:58;435.70;2099.20
70151;DHT22;57517;43.562;19.540;2022-08-01T01:59:28;435.40;2124.80
70151;DHT22;57517;43.562;19.540;2022-08-01T02:01:56;435.20;2176.00
70151;DHT22;57517;43.562;19.540;2022-08-01T02:04:24;410.50;2176.00
70151;DHT22;57517;43.562;19.540;2022-08-01T02:06:52;435.30;2176.00
70151;DHT22;57517;43.562;19.540;2022-08-01T02:09:20;435.40;2150.40
70151;DHT22;57517;43.562;19.540;2022-08-01T02:11:48;435.60;2124.80
70151;DHT22;57517;43.562;19.540;2022-08-01T02:14:16;435.60;2124.80
70151;DHT22;57517;43.562;19.540;2022-08-01T02:16:45;435.40;2150.40
70151;DHT22;57517;43.562;19.540;2022-08-01T02:19:13;435.40;2176.00
70151;DHT22;57517;43.562;19.540;2022-08-01T02:21:47;435.40;2176.00
70151;DHT22;57517;43.562;19.540;2022-08-01T02:24:49;435.40;2150.40
70151;DHT22;57517;43.562;19.540;2022-08-01T02:27:15;435.60;2150.40
70151;DHT22;57517;43.562;19.540;2022-08-01T02:32:24;435.40;2150.40
70151;DHT22;57517;43.562;19.540;2022-08-01T02:34:52;435.40;2124.80
70151;DHT22;57517;43.562;19.540;2022-08-01T02:37:19;435.20;2150.40
70151;DHT22;57517;43.562;19.540;2022-08-01T02:39:48;410.50;2176.00
70151;DHT22;57517;43.562;19.540;2022-08-01T02:42:18;410.50;2176.00
70151;DHT22;57517;43.562;19.540;2022-08-01T02:44:44;435.30;2150.40
70151;DHT22;57517;43.562;19.540;2022-08-01T02:47:12;435.20;2150.40
70151;DHT22;57517;43.562;19.540;2022-08-01T02:49:45;435.20;2150.40
70151;DHT22;57517;43.562;19.540;2022-08-01T02:52:14;410.40;2176.00
70151;DHT22;57517;43.562;19.540;2022-08-01T02:54:43;410.40;2176.00
70151;DHT22;57517;43.562;19.540;2022-08-01T02:57:10;410.00;2227.20
70151;DHT22;57517;43.562;19.540;2022-08-01T02:59:37;409.80;2252.80
70151;DHT22;57517;43.562;19.540;2022-08-01T03:02:05;384.80;2278.40
70151;DHT22;57517;43.562;19.540;2022-08-01T03:04:33;384.80;2278.40
70151;DHT22;57517;43.562;19.540;2022-08-01T03:07:02;384.70;2304.00
70151;DHT22;57517;43.562;19.540;2022-08-01T03:09:32;384.80;2278.40
70151;DHT22;57517;43.562;19.540;2022-08-01T03:12:03;384.90;2278.40
70151;DHT22;57517;43.562;19.540;2022-08-01T03:14:31;409.80;2278.40
70151;DHT22;57517;43.562;19.540;2022-08-01T03:16:59;410.00;2227.20
70151;DHT22;57517;43.562;19.540;2022-08-01T03:19:26;410.10;2227.20
70151;DHT22;57517;43.562;19.540;2022-08-01T03:21:54;410.20;2227.20
70151;DHT22;57517;43.562;19.540;2022-08-01T03:24:21;410.00;2227.20
70151;DHT22;57517;43.562;19.540;2022-08-01T03:26:50;409.90;2252.80
70151;DHT22;57517;43.562;19.540;2022-08-01T03:29:21;409.80;2252.80
70151;DHT22;57517;43.562;19.540;2022-08-01T03:31:49;409.70;2278.40
70151;DHT22;57517;43.562;19.540;2022-08-01T03:34:15;409.70;2252.80
70151;DHT22;57517;43.562;19.540;2022-08-01T03:36:55;409.70;2278.40
70151;DHT22;57517;43.562;19.540;2022-08-01T03:39:27;384.90;2227.20
70151;DHT22;57517;43.562;19.540;2022-08-01T03:42:01;384.80;2252.80
70151;DHT22;57517;43.562;19.540;2022-08-01T03:44:32;384.80;2252.80
70151;DHT22;57517;43.562;19.540;2022-08-01T03:47:02;384.90;2252.80
70151;DHT22;57517;43.562;19.540;2022-08-01T03:49:31;384.90;2252.80
70151;DHT22;57517;43.562;19.540;2022-08-01T03:52:01;409.60;2278.40
70151;DHT22;57517;43.562;19.540;2022-08-01T03:54:31;384.60;2278.40
70151;DHT22;57517;43.562;19.540;2022-08-01T03:57:00;384.50;2304.00
70151;DHT22;57517;43.562;19.540;2022-08-01T03:59:27;384.50;2304.00
70151;DHT22;57517;43.562;19.540;2022-08-01T04:01:55;384.50;2304.00
70151;DHT22;57517;43.562;19.540;2022-08-01T04:04:21;384.80;2278.40
70151;DHT22;57517;43.562;19.540;2022-08-01T04:06:48;384.80;2278.40
70151;DHT22;57517;43.562;19.540;2022-08-01T04:09:20;409.60;2278.40
70151;DHT22;57517;43.562;19.540;2022-08-01T04:11:46;409.80;2252.80
70151;DHT22;57517;43.562;19.540;2022-08-01T04:14:13;409.90;2252.80
70151;DHT22;57517;43.562;19.540;2022-08-01T04:16:39;409.80;2278.40
70151;DHT22;57517;43.562;19.540;2022-08-01T04:19:04;409.80;2252.80
70151;DHT22;57517;43.562;19.540;2022-08-01T04:21:34;409.80;2227.20
70151;DHT22;57517;43.562;19.540;2022-08-01T04:24:10;410.00;2227.20
70151;DHT22;57517;43.562;19.540;2022-08-01T04:26:38;410.30;2201.60
70151;DHT22;57517;43.562;19.540;2022-08-01T04:29:06;410.50;2150.40
70151;DHT22;57517;43.562;19.540;2022-08-01T04:31:33;410.50;2150.40
70151;DHT22;57517;43.562;19.540;2022-08-01T04:34:02;435.30;2150.40
70151;DHT22;57517;43.562;19.540;2022-08-01T04:36:29;410.50;2150.40
70151;DHT22;57517;43.562;19.540;2022-08-01T04:38:59;435.20;2150.40
70151;DHT22;57517;43.562;19.540;2022-08-01T04:41:26;435.20;2124.80
70151;DHT22;57517;43.562;19.540;2022-08-01T04:43:52;410.50;2150.40
70151;DHT22;57517;43.562;19.540;2022-08-01T04:46:20;410.20;2201.60
70151;DHT22;57517;43.562;19.540;2022-08-01T04:48:47;410.40;2150.40
70151;DHT22;57517;43.562;19.540;2022-08-01T04:51:15;410.50;2150.40
70151;DHT22;57517;43.562;19.540;2022-08-01T04:53:41;435.20;2124.80
70151;DHT22;57517;43.562;19.540;2022-08-01T04:56:08;435.30;2150.40
70151;DHT22;57517;43.562;19.540;2022-08-01T04:58:33;435.30;2124.80
70151;DHT22;57517;43.562;19.540;2022-08-01T05:00:59;460.80;2073.60
70151;DHT22;57517;43.562;19.540;2022-08-01T05:03:25;512.60;1792.00
70151;DHT22;57517;43.562;19.540;2022-08-01T05:05:51;563.70;1638.40
70151;DHT22;57517;43.562;19.540;2022-08-01T05:08:17;589.60;1536.00
70151;DHT22;57517;43.562;19.540;2022-08-01T05:10:42;615.30;1433.60
70151;DHT22;57517;43.562;19.540;2022-08-01T05:13:09;640.40;1382.40
70151;DHT22;57517;43.562;19.540;2022-08-01T05:15:35;665.70;1331.20
70151;DHT22;57517;43.562;19.540;2022-08-01T05:18:04;666.30;1280.00
70151;DHT22;57517;43.562;19.540;2022-08-01T05:20:30;691.90;1203.20
70151;DHT22;57517;43.562;19.540;2022-08-01T05:22:57;717.00;1203.20
70151;DHT22;57517;43.562;19.540;2022-08-01T05:25:23;717.40;1152.00
70151;DHT22;57517;43.562;19.540;2022-08-01T05:27:49;742.50;1152.00
70151;DHT22;57517;43.562;19.540;2022-08-01T05:30:15;742.60;1126.40
70151;DHT22;57517;43.562;19.540;2022-08-01T05:32:41;742.70;1126.40
70151;DHT22;57517;43.562;19.540;2022-08-01T05:35:08;742.70;1126.40
70151;DHT22;57517;43.562;19.540;2022-08-01T05:37:34;743.20;1100.80
70151;DHT22;57517;43.562;19.540;2022-08-01T05:40:00;743.30;1075.20
70151;DHT22;57517;43.562;19.540;2022-08-01T05:42:26;768.80;1024.00
70151;DHT22;57517;43.562;19.540;2022-08-01T05:44:52;794.20;998.40
70151;DHT22;57517;43.562;19.540;2022-08-01T05:47:18;794.50;972.80
70151;DHT22;57517;43.562;19.540;2022-08-01T05:49:45;819.50;947.20
70151;DHT22;57517;43.562;19.540;2022-08-01T05:52:11;820.10;921.60
70151;DHT22;57517;43.562;19.540;2022-08-01T05:54:37;845.00;921.60
70151;DHT22;57517;43.562;19.540;2022-08-01T05:57:04;845.20;896.00
70151;DHT22;57517;43.562;19.540;2022-08-01T05:59:30;845.30;896.00
70151;DHT22;57517;43.562;19.540;2022-08-01T06:01:56;845.70;896.00
70151;DHT22;57517;43.562;19.540;2022-08-01T06:04:22;845.60;870.40
70151;DHT22;57517;43.562;19.540;2022-08-01T06:06:47;845.70;870.40
70151;DHT22;57517;43.562;19.540;2022-08-01T06:09:13;870.70;844.80
70151;DHT22;57517;43.562;19.540;2022-08-01T06:11:39;870.80;844.80
70151;DHT22;57517;43.562;19.540;2022-08-01T06:14:05;871.10;819.20
70151;DHT22;57517;43.562;19.540;2022-08-01T06:16:31;871.20;793.60
70151;DHT22;57517;43.562;19.540;2022-08-01T06:18:57;871.10;793.60
70151;DHT22;57517;43.562;19.540;2022-08-01T06:21:23;896.00;819.20
70151;DHT22;57517;43.562;19.540;2022-08-01T06:23:49;896.40;768.00
70151;DHT22;57517;43.562;19.540;2022-08-01T06:26:17;871.20;793.60
70151;DHT22;57517;43.562;19.540;2022-08-01T06:28:43;896.10;768.00
70151;DHT22;57517;43.562;19.540;2022-08-01T06:31:09;871.20;768.00
70151;DHT22;57517;43.562;19.540;2022-08-01T06:33:37;896.20;742.40
70151;DHT22;57517;43.562;19.540;2022-08-01T06:36:03;896.80;742.40
70151;DHT22;57517;43.562;19.540;2022-08-01T06:38:29;921.60;742.40
70151;DHT22;57517;43.562;19.540;2022-08-01T06:40:55;921.80;742.40
70151;DHT22;57517;43.562;19.540;2022-08-01T06:43:21;922.20;716.80
70151;DHT22;57517;43.562;19.540;2022-08-01T06:45:47;922.50;716.80
70151;DHT22;57517;43.562;19.540;2022-08-01T06:48:13;922.40;716.80
70151;DHT22;57517;43.562;19.540;2022-08-01T06:50:39;947.50;691.20
70151;DHT22;57517;43.562;19.540;2022-08-01T06:53:05;922.30;716.80
70151;DHT22;57517;43.562;19.540;2022-08-01T06:55:31;922.50;716.80
70151;DHT22;57517;43.562;19.540;2022-08-01T06:57:57;947.50;691.20
70151;DHT22;57517;43.562;19.540;2022-08-01T07:00:24;922.40;716.80
70151;DHT22;57517;43.562;19.540;2022-08-01T07:02:52;921.70;742.40
70151;DHT22;57517;43.562;19.540;2022-08-01T07:05:19;921.80;742.40
70151;DHT22;57517;43.562;19.540;2022-08-01T07:07:45;921.60;742.40
70151;DHT22;57517;43.562;19.540;2022-08-01T07:10:11;896.50;742.40
70151;DHT22;57517;43.562;19.540;2022-08-01T07:12:37;896.50;742.40
70151;DHT22;57517;43.562;19.540;2022-08-01T07:15:10;896.70;742.40
70151;DHT22;57517;43.562;19.540;2022-08-01T07:17:41;896.70;742.40
70151;DHT22;57517;43.562;19.540;2022-08-01T07:20:12;896.50;768.00
70151;DHT22;57517;43.562;19.540;2022-08-01T07:22:38;896.90;742.40
70151;DHT22;57517;43.562;19.540;2022-08-01T07:25:04;896.20;793.60
70151;DHT22;57517;43.562;19.540;2022-08-01T07:27:30;896.70;742.40
70151;DHT22;57517;43.562;19.540;2022-08-01T07:29:56;896.00;768.00
70151;DHT22;57517;43.562;19.540;2022-08-01T07:32:22;871.00;768.00
70151;DHT22;57517;43.562;19.540;2022-08-01T07:34:48;870.90;768.00
70151;DHT22;57517;43.562;19.540;2022-08-01T07:37:14;845.60;819.20
70151;DHT22;57517;43.562;19.540;2022-08-01T07:39:40;845.20;844.80
70151;DHT22;57517;43.562;19.540;2022-08-01T07:42:06;845.10;870.40
70151;DHT22;57517;43.562;19.540;2022-08-01T07:44:31;845.20;870.40
70151;DHT22;57517;43.562;19.540;2022-08-01T07:46:57;845.00;844.80
70151;DHT22;57517;43.562;19.540;2022-08-01T07:49:23;819.90;819.20
70151;DHT22;57517;43.562;19.540;2022-08-01T07:51:49;820.10;819.20
70151;DHT22;57517;43.562;19.540;2022-08-01T07:54:15;819.90;819.20
70151;DHT22;57517;43.562;19.540;2022-08-01T07:56:40;819.60;844.80
70151;DHT22;57517;43.562;19.540;2022-08-01T07:59:06;794.50;896.00
70151;DHT22;57517;43.562;19.540;2022-08-01T08:01:32;794.20;896.00
70151;DHT22;57517;43.562;19.540;2022-08-01T08:03:58;794.00;921.60
70151;DHT22;57517;43.562;19.540;2022-08-01T08:06:24;794.00;947.20
70151;DHT22;57517;43.562;19.540;2022-08-01T08:08:50;793.90;947.20
70151;DHT22;57517;43.562;19.540;2022-08-01T08:11:16;768.90;947.20
70151;DHT22;57517;43.562;19.540;2022-08-01T08:13:41;768.80;947.20
70151;DHT22;57517;43.562;19.540;2022-08-01T08:16:07;768.70;921.60
70151;DHT22;57517;43.562;19.540;2022-08-01T08:18:33;768.70;947.20
70151;DHT22;57517;43.562;19.540;2022-08-01T08:20:59;768.30;972.80
70151;DHT22;57517;43.562;19.540;2022-08-01T08:23:24;768.30;972.80
70151;DHT22;57517;43.562;19.540;2022-08-01T08:26:10;768.10;998.40
70151;DHT22;57517;43.562;19.540;2022-08-01T08:28:36;768.20;998.40
70151;DHT22;57517;43.562;19.540;2022-08-01T08:31:02;768.10;998.40
70151;DHT22;57517;43.562;19.540;2022-08-01T08:33:28;768.00;1024.00
70151;DHT22;57517;43.562;19.540;2022-08-01T08:35:54;743.30;1024.00
70151;DHT22;57517;43.562;19.540;2022-08-01T08:38:20;743.20;1024.00
70151;DHT22;57517;43.562;19.540;2022-08-01T08:40:46;743.10;1024.00
70151;DHT22;57517;43.562;19.540;2022-08-01T08:43:12;743.10;1075.20
70151;DHT22;57517;43.562;19.540;2022-08-01T08:45:38;743.10;1049.60
70151;DHT22;57517;43.562;19.540;2022-08-01T08:48:05;743.30;1049.60
70151;DHT22;57517;43.562;19.540;2022-08-01T08:50:31;768.00;1049.60
70151;DHT22;57517;43.562;19.540;2022-08-01T08:52:59;768.10;1024.00
70151;DHT22;57517;43.562;19.540;2022-08-01T08:55:26;743.30;1024.00
70151;DHT22;57517;43.562;19.540;2022-08-01T08:57:53;743.10;1049.60
70151;DHT22;57517;43.562;19.540;2022-08-01T09:00:20;743.10;1049.60
70151;DHT22;57517;43.562;19.540;2022-08-01T09:02:47;742.90;1049.60
70151;DHT22;57517;43.562;19.540;2022-08-01T09:05:14;742.90;1024.00
70151;DHT22;57517;43.562;19.540;2022-08-01T09:07:40;742.90;1024.00
70151;DHT22;57517;43.562;19.540;2022-08-01T09:10:08;742.90;1049.60
70151;DHT22;57517;43.562;19.540;2022-08-01T09:12:36;743.00;1024.00
70151;DHT22;57517;43.562;19.540;2022-08-01T09:15:02;743.10;1024.00
70151;DHT22;57517;43.562;19.540;2022-08-01T09:17:30;743.20;1024.00
70151;DHT22;57517;43.562;19.540;2022-08-01T09:20:04;768.00;998.40
70151;DHT22;57517;43.562;19.540;2022-08-01T09:22:33;768.20;972.80
70151;DHT22;57517;43.562;19.540;2022-08-01T09:25:06;768.40;947.20
70151;DHT22;57517;43.562;19.540;2022-08-01T09:27:32;768.40;947.20
70151;DHT22;57517;43.562;19.540;2022-08-01T09:32:59;768.90;921.60
70151;DHT22;57517;43.562;19.540;2022-08-01T09:35:25;768.70;921.60
70151;DHT22;57517;43.562;19.540;2022-08-01T09:37:51;768.70;896.00
70151;DHT22;57517;43.562;19.540;2022-08-01T09:40:22;768.40;921.60
70151;DHT22;57517;43.562;19.540;2022-08-01T09:42:48;768.70;921.60
70151;DHT22;57517;43.562;19.540;2022-08-01T09:45:35;768.80;921.60
70151;DHT22;57517;43.562;19.540;2022-08-01T09:48:05;768.90;870.40
70151;DHT22;57517;43.562;19.540;2022-08-01T09:50:42;768.80;870.40
70151;DHT22;57517;43.562;19.540;2022-08-01T09:53:09;793.60;896.00
70151;DHT22;57517;43.562;19.540;2022-08-01T09:55:36;793.80;896.00
70151;DHT22;57517;43.562;19.540;2022-08-01T09:58:02;793.80;896.00
70151;DHT22;57517;43.562;19.540;2022-08-01T10:00:30;793.80;896.00
70151;DHT22;57517;43.562;19.540;2022-08-01T10:02:57;793.80;921.60
70151;DHT22;57517;43.562;19.540;2022-08-01T10:05:33;793.80;870.40
70151;DHT22;57517;43.562;19.540;2022-08-01T10:08:02;793.80;870.40
70151;DHT22;57517;43.562;19.540;2022-08-01T10:10:29;793.90;870.40
70151;DHT22;57517;43.562;19.540;2022-08-01T10:12:57;793.80;870.40
70151;DHT22;57517;43.562;19.540;2022-08-01T10:15:25;793.90;870.40
70151;DHT22;57517;43.562;19.540;2022-08-01T10:17:57;793.90;870.40
70151;DHT22;57517;43.562;19.540;2022-08-01T10:20:33;793.70;870.40
70151;DHT22;57517;43.562;19.540;2022-08-01T10:23:01;793.80;896.00
70151;DHT22;57517;43.562;19.540;2022-08-01T10:25:36;793.90;870.40
70151;DHT22;57517;43.562;19.540;2022-08-01T10:28:15;794.00;870.40
70151;DHT22;57517;43.562;19.540;2022-08-01T10:30:42;794.00;870.40
70151;DHT22;57517;43.562;19.540;2022-08-01T10:33:10;794.30;844.80
70151;DHT22;57517;43.562;19.540;2022-08-01T10:35:38;794.00;870.40
70151;DHT22;57517;43.562;19.540;2022-08-01T10:38:04;794.00;870.40
70151;DHT22;57517;43.562;19.540;2022-08-01T10:40:31;794.00;870.40
70151;DHT22;57517;43.562;19.540;2022-08-01T10:42:57;794.00;896.00
70151;DHT22;57517;43.562;19.540;2022-08-01T10:45:24;794.10;896.00
70151;DHT22;57517;43.562;19.540;2022-08-01T10:50:42;793.90;896.00
70151;DHT22;57517;43.562;19.540;2022-08-01T10:53:10;794.00;896.00
70151;DHT22;57517;43.562;19.540;2022-08-01T11:01:20;793.90;896.00
70151;DHT22;57517;43.562;19.540;2022-08-01T11:04:10;794.00;870.40
70151;DHT22;57517;43.562;19.540;2022-08-01T11:06:42;794.00;896.00
70151;DHT22;57517;43.562;19.540;2022-08-01T11:11:56;794.20;870.40
70151;DHT22;57517;43.562;19.540;2022-08-01T11:14:22;794.30;870.40
70151;DHT22;57517;43.562;19.540;2022-08-01T11:16:48;794.50;844.80
70151;DHT22;57517;43.562;19.540;2022-08-01T11:19:14;794.20;896.00
70151;DHT22;57517;43.562;19.540;2022-08-01T11:35:11;768.90;896.00
70151;DHT22;57517;43.562;19.540;2022-08-01T11:37:37;793.60;870.40
70151;DHT22;57517;43.562;19.540;2022-08-01T11:40:17;768.90;870.40
70151;DHT22;57517;43.562;19.540;2022-08-01T11:42:43;768.90;870.40
70151;DHT22;57517;43.562;19.540;2022-08-01T11:45:09;768.90;844.80
70151;DHT22;57517;43.562;19.540;2022-08-01T11:50:32;768.90;844.80
70151;DHT22;57517;43.562;19.540;2022-08-01T11:53:00;768.90;844.80
70151;DHT22;57517;43.562;19.540;2022-08-01T11:55:27;768.80;870.40
70151;DHT22;57517;43.562;19.540;2022-08-01T11:58:01;793.60;870.40
70151;DHT22;57517;43.562;19.540;2022-08-01T12:00:27;793.90;870.40
70151;DHT22;57517;43.562;19.540;2022-08-01T12:03:12;793.90;870.40
70151;DHT22;57517;43.562;19.540;2022-08-01T12:05:38;794.00;870.40
70151;DHT22;57517;43.562;19.540;2022-08-01T12:08:04;794.30;870.40
70151;DHT22;57517;43.562;19.540;2022-08-01T12:10:33;794.30;870.40
70151;DHT22;57517;43.562;19.540;2022-08-01T12:13:04;794.40;844.80
70151;DHT22;57517;43.562;19.540;2022-08-01T12:15:34;794.40;844.80
70151;DHT22;57517;43.562;19.540;2022-08-01T12:18:02;794.30;844.80
70151;DHT22;57517;43.562;19.540;2022-08-01T12:20:32;794.40;819.20
70151;DHT22;57517;43.562;19.540;2022-08-01T12:23:01;794.50;819.20
70151;DHT22;57517;43.562;19.540;2022-08-01T12:25:27;794.30;819.20
70151;DHT22;57517;43.562;19.540;2022-08-01T12:27:53;794.30;819.20
70151;DHT22;57517;43.562;19.540;2022-08-01T12:30:21;794.40;793.60
70151;DHT22;57517;43.562;19.540;2022-08-01T12:32:51;794.30;819.20
70151;DHT22;57517;43.562;19.540;2022-08-01T12:35:26;794.00;819.20
70151;DHT22;57517;43.562;19.540;2022-08-01T12:37:55;794.00;819.20
70151;DHT22;57517;43.562;19.540;2022-08-01T12:40:23;794.00;844.80
70151;DHT22;57517;43.562;19.540;2022-08-01T12:42:51;794.10;819.20
70151;DHT22;57517;43.562;19.540;2022-08-01T12:45:28;794.10;819.20
70151;DHT22;57517;43.562;19.540;2022-08-01T12:47:56;794.20;793.60
70151;DHT22;57517;43.562;19.540;2022-08-01T12:50:27;794.30;819.20
70151;DHT22;57517;43.562;19.540;2022-08-01T12:52:57;794.30;819.20
70151;DHT22;57517;43.562;19.540;2022-08-01T12:55:24;794.30;819.20
70151;DHT22;57517;43.562;19.540;2022-08-01T12:58:05;794.30;819.20
70151;DHT22;57517;43.562;19.540;2022-08-01T13:00:32;794.20;819.20
70151;DHT22;57517;43.562;19.540;2022-08-01T13:03:16;794.10;819.20
70151;DHT22;57517;43.562;19.540;2022-08-01T13:05:45;794.30;819.20
70151;DHT22;57517;43.562;19.540;2022-08-01T13:08:19;794.50;819.20
70151;DHT22;57517;43.562;19.540;2022-08-01T13:10:46;819.20;819.20
70151;DHT22;57517;43.562;19.540;2022-08-01T13:13:14;794.50;819.20
70151;DHT22;57517;43.562;19.540;2022-08-01T13:15:42;794.40;819.20
70151;DHT22;57517;43.562;19.540;2022-08-01T13:18:27;794.40;819.20
70151;DHT22;57517;43.562;19.540;2022-08-01T13:21:16;794.10;819.20
70151;DHT22;57517;43.562;19.540;2022-08-01T13:24:07;794.20;819.20
70151;DHT22;57517;43.562;19.540;2022-08-01T13:27:01;794.20;819.20
70151;DHT22;57517;43.562;19.540;2022-08-01T13:29:36;794.30;819.20
70151;DHT22;57517;43.562;19.540;2022-08-01T13:32:19;794.30;844.80
70151;DHT22;57517;43.562;19.540;2022-08-01T13:34:45;794.40;819.20
70151;DHT22;57517;43.562;19.540;2022-08-01T13:37:11;794.20;819.20
70151;DHT22;57517;43.562;19.540;2022-08-01T13:39:37;794.20;844.80
70151;DHT22;57517;43.562;19.540;2022-08-01T13:42:16;794.30;844.80
70151;DHT22;57517;43.562;19.540;2022-08-01T13:44:43;794.30;844.80
70151;DHT22;57517;43.562;19.540;2022-08-01T13:47:11;794.10;844.80
70151;DHT22;57517;43.562;19.540;2022-08-01T13:49:37;794.00;844.80
70151;DHT22;57517;43.562;19.540;2022-08-01T13:52:05;793.80;870.40
70151;DHT22;57517;43.562;19.540;2022-08-01T13:54:34;794.00;896.00
70151;DHT22;57517;43.562;19.540;2022-08-01T13:57:01;793.90;870.40
70151;DHT22;57517;43.562;19.540;2022-08-01T13:59:27;793.90;870.40
70151;DHT22;57517;43.562;19.540;2022-08-01T14:01:53;793.90;870.40
70151;DHT22;57517;43.562;19.540;2022-08-01T14:04:19;794.00;844.80
70151;DHT22;57517;43.562;19.540;2022-08-01T14:06:47;793.80;870.40
70151;DHT22;57517;43.562;19.540;2022-08-01T14:09:13;793.80;870.40
70151;DHT22;57517;43.562;19.540;2022-08-01T14:11:43;794.00;844.80
70151;DHT22;57517;43.562;19.540;2022-08-01T14:14:09;793.90;870.40
70151;DHT22;57517;43.562;19.540;2022-08-01T14:16:35;793.90;870.40
70151;DHT22;57517;43.562;19.540;2022-08-01T14:19:03;793.60;870.40
70151;DHT22;57517;43.562;19.540;2022-08-01T14:21:29;768.90;870.40
70151;DHT22;57517;43.562;19.540;2022-08-01T14:23:55;768.70;896.00
70151;DHT22;57517;43.562;19.540;2022-08-01T14:26:20;768.60;921.60
70151;DHT22;57517;43.562;19.540;2022-08-01T14:28:46;768.40;896.00
70151;DHT22;57517;43.562;19.540;2022-08-01T14:31:12;768.30;896.00
70151;DHT22;57517;43.562;19.540;2022-08-01T14:33:38;768.20;896.00
70151;DHT22;57517;43.562;19.540;2022-08-01T14:36:04;768.20;921.60
70151;DHT22;57517;43.562;19.540;2022-08-01T14:38:30;768.20;896.00
70151;DHT22;57517;43.562;19.540;2022-08-01T14:40:56;768.30;921.60
70151;DHT22;57517;43.562;19.540;2022-08-01T14:43:22;768.70;896.00
70151;DHT22;57517;43.562;19.540;2022-08-01T14:45:48;768.70;921.60
70151;DHT22;57517;43.562;19.540;2022-08-01T14:48:17;768.70;896.00
70151;DHT22;57517;43.562;19.540;2022-08-01T14:50:43;768.80;896.00
70151;DHT22;57517;43.562;19.540;2022-08-01T14:53:09;768.90;896.00
70151;DHT22;57517;43.562;19.540;2022-08-01T14:55:35;793.60;921.60
70151;DHT22;57517;43.562;19.540;2022-08-01T14:58:01;793.80;921.60
70151;DHT22;57517;43.562;19.540;2022-08-01T15:00:27;793.90;921.60
70151;DHT22;57517;43.562;19.540;2022-08-01T15:02:53;794.00;896.00
70151;DHT22;57517;43.562;19.540;2022-08-01T15:05:19;793.90;896.00
70151;DHT22;57517;43.562;19.540;2022-08-01T15:07:45;793.70;896.00
70151;DHT22;57517;43.562;19.540;2022-08-01T15:10:11;768.90;870.40
70151;DHT22;57517;43.562;19.540;2022-08-01T15:12:37;768.80;896.00
70151;DHT22;57517;43.562;19.540;2022-08-01T15:15:04;768.70;896.00
70151;DHT22;57517;43.562;19.540;2022-08-01T15:17:31;768.70;896.00
70151;DHT22;57517;43.562;19.540;2022-08-01T15:20:04;768.60;896.00
70151;DHT22;57517;43.562;19.540;2022-08-01T15:22:33;768.60;896.00
70151;DHT22;57517;43.562;19.540;2022-08-01T15:25:00;768.40;896.00
70151;DHT22;57517;43.562;19.540;2022-08-01T15:27:27;768.30;921.60
70151;DHT22;57517;43.562;19.540;2022-08-01T15:29:54;768.30;921.60